»·PEaware :: N71K KSBA-KPSP

N71K :: KSBA-KPSP

FLIGHT INFORMATION

Flight Status: Arrived
Operator: Privately registered:
United States
More flights under this callsign
Pilot: Ryan C. (15122)
Aircraft: BOMBARDIER BD-100 CHALLENGER 300
(CL30)
More flights by this aircraft type
Origin: KSBA Santa Barbara Mun
United States
Destination: KPSP Palm Springs Intl
United States
More flights between these airports :: More routes between these airports
Route: +PMD V137 PSP
File this flight plan on PilotEdge
Remarks:
Altitude:
(Current/Filed)
15,000ft
Speed:
(Current/Filed)
350kts
Departed: 23-Apr-19 03:41 PM
Arrived: 23-Apr-19 04:25 PM
Distance/Time
Traveled:
169nm/0:44
Distance/Time
To Go:
Arrived

Flight Plot

Page will automatically refresh every two minutes.


Map Options




Map Legend


Flown Route
Filed Route
Departure Airport
Arrival Airport
Navaid (VOR, NDB)
Fix

Horizontal Profiles

Position Reports

Time Latitude Longitude Heading Altitude Ground
Speed
23-Apr-19 15:20 34.432723 -119.835615 71 19ft 0kts
23-Apr-19 15:21 34.432723 -119.835615 71 19ft 0kts
23-Apr-19 15:22 34.432723 -119.835615 71 19ft 0kts
23-Apr-19 15:23 34.432723 -119.835615 71 19ft 0kts
23-Apr-19 15:24 34.432723 -119.835615 71 19ft 0kts
23-Apr-19 15:25 34.432723 -119.835615 71 19ft 0kts
23-Apr-19 15:26 34.432723 -119.835615 71 19ft 0kts
23-Apr-19 15:26 34.432723 -119.835615 71 19ft 0kts
23-Apr-19 15:28 34.432723 -119.835615 71 19ft 0kts
23-Apr-19 15:29 34.432723 -119.835615 71 19ft 0kts
23-Apr-19 15:29 34.432723 -119.835615 71 19ft 0kts
23-Apr-19 15:30 34.432723 -119.835615 71 19ft 0kts
23-Apr-19 15:32 34.432723 -119.835615 71 19ft 0kts
23-Apr-19 15:32 34.432723 -119.835615 71 19ft 0kts
23-Apr-19 15:33 34.432723 -119.835615 71 19ft 0kts
23-Apr-19 15:34 34.432723 -119.835615 71 19ft 0kts
23-Apr-19 15:35 34.432745 -119.835495 87 19ft 3kts
23-Apr-19 15:36 34.431855 -119.835373 186 19ft 6kts
23-Apr-19 15:37 34.429842 -119.835349 178 18ft 4kts
23-Apr-19 15:38 34.428948 -119.834811 133 18ft 4kts
23-Apr-19 15:39 34.427847 -119.835588 268 19ft 32kts
23-Apr-19 15:40 34.420358 -119.880729 216 2843ft 199kts
23-Apr-19 15:41 34.361712 -119.855423 152 3445ft 232kts
23-Apr-19 15:42 34.302971 -119.815743 152 6362ft 251kts
23-Apr-19 15:43 34.301607 -119.747204 53 9209ft 249kts
23-Apr-19 15:44 34.326778 -119.668459 71 13899ft 259kts
23-Apr-19 15:45 34.347086 -119.569930 73 15033ft 356kts
23-Apr-19 15:46 34.367525 -119.465256 74 15017ft 383kts
23-Apr-19 15:47 34.391321 -119.342615 74 15017ft 375kts
23-Apr-19 15:48 34.413654 -119.226897 74 15017ft 372kts
23-Apr-19 15:49 34.437024 -119.105186 74 15012ft 370kts
23-Apr-19 15:50 34.460176 -118.983821 74 15010ft 372kts
23-Apr-19 15:51 34.483467 -118.861012 73 14955ft 374kts
23-Apr-19 15:52 34.506625 -118.738274 73 14955ft 373kts
23-Apr-19 15:53 34.529635 -118.615602 73 14959ft 372kts
23-Apr-19 15:54 34.552413 -118.493410 73 14970ft 371kts
23-Apr-19 15:55 34.575002 -118.371509 73 14996ft 370kts
23-Apr-19 15:56 34.596802 -118.253183 73 15009ft 370kts
23-Apr-19 15:57 34.619127 -118.131290 73 15008ft 370kts
23-Apr-19 15:58 34.604854 -118.009723 113 15009ft 388kts
23-Apr-19 15:59 34.553767 -117.894289 114 15008ft 389kts
23-Apr-19 16:00 34.501364 -117.779325 114 15014ft 390kts
23-Apr-19 16:01 34.448571 -117.664432 114 15027ft 390kts
23-Apr-19 16:02 34.395735 -117.549876 114 15036ft 391kts
23-Apr-19 16:03 34.342559 -117.434957 114 14998ft 392kts
23-Apr-19 16:04 34.289563 -117.320781 115 14956ft 393kts
23-Apr-19 16:05 34.235742 -117.205210 115 14913ft 394kts
23-Apr-19 16:06 34.181923 -117.089994 115 14908ft 393kts
23-Apr-19 16:07 34.128001 -116.974892 116 14895ft 394kts
23-Apr-19 16:08 34.073839 -116.859796 117 14551ft 392kts
23-Apr-19 16:09 34.021115 -116.748100 117 14015ft 365kts
23-Apr-19 16:10 33.972965 -116.646353 117 14016ft 337kts
23-Apr-19 16:11 33.927513 -116.550541 118 13119ft 319kts
23-Apr-19 16:12 33.879623 -116.464472 141 11901ft 306kts
23-Apr-19 16:13 33.813747 -116.403064 141 10469ft 290kts
23-Apr-19 16:14 33.767256 -116.329174 111 8203ft 280kts
23-Apr-19 16:15 33.738041 -116.245027 111 5893ft 266kts
23-Apr-19 16:16 33.687028 -116.217018 231 4952ft 245kts
23-Apr-19 16:17 33.694504 -116.289468 291 4200ft 218kts
23-Apr-19 16:18 33.713940 -116.352988 292 3587ft 180kts
23-Apr-19 16:19 33.730609 -116.395171 298 2977ft 133kts
23-Apr-19 16:20 33.749748 -116.434070 306 2316ft 132kts
23-Apr-19 16:21 33.777403 -116.461416 324 1608ft 125kts
23-Apr-19 16:22 33.806525 -116.487136 324 887ft 127kts
23-Apr-19 16:23 33.831126 -116.508958 323 429ft 52kts
23-Apr-19 16:24 33.833007 -116.511871 217 429ft 0kts
23-Apr-19 16:25 33.831799 -116.511716 141 429ft 12kts
23-Apr-19 16:26 33.828763 -116.508963 137 429ft 13kts
23-Apr-19 16:27 33.826022 -116.506947 203 429ft 9kts
23-Apr-19 16:28 33.825305 -116.509080 244 429ft 4kts
23-Apr-19 16:29 33.825320 -116.509513 357 429ft 0kts
23-Apr-19 16:30 33.825320 -116.509513 357 429ft 0kts
23-Apr-19 16:31 33.825320 -116.509513 357 429ft 0kts
23-Apr-19 16:32 33.825320 -116.509513 357 429ft 0kts
23-Apr-19 16:33 33.825320 -116.509513 357 429ft 0kts
23-Apr-19 16:34 33.825320 -116.509513 357 429ft 0kts
23-Apr-19 16:35 33.825320 -116.509513 357 429ft 0kts
23-Apr-19 16:36 33.825320 -116.509513 357 429ft 0kts
23-Apr-19 16:37 33.825320 -116.509513 357 429ft 0kts
23-Apr-19 16:38 33.825320 -116.509513 357 429ft 0kts
23-Apr-19 16:39 33.825320 -116.509513 357 429ft 0kts

Navigation Log

Ident Type
Flight plan parsing failed, navigation log unavailable